Time,TemperatureF,DewpointF,PressureIn,WindDirection,WindDirectionDegrees,WindSpeedMPH,WindSpeedGustMPH,Humidity,HourlyPrecipIn,Conditions,Clouds,dailyrainin,SoftwareType,DateUTC
2013-06-18 00:01:00,55.9,54.5,29.84,SW,223,0.0,0.0,95,0.00,,,0.00,WeatherCatV1.15B25,2013-06-18 04:01:00,
2013-06-18 00:02:00,55.9,54.5,29.84,SW,223,0.0,0.0,95,0.00,,,0.00,WeatherCatV1.15B25,2013-06-18 04:02:00,
2013-06-18 00:05:00,55.7,54.3,29.84,SW,223,0.0,2.0,95,0.00,,,0.00,WeatherCatV1.15B25,2013-06-18 04:05:00,
2013-06-18 00:07:00,55.5,54.1,29.84,SW,223,0.0,0.0,95,0.00,,,0.00,WeatherCatV1.15B25,2013-06-18 04:07:00,
2013-06-18 00:12:00,55.2,53.5,29.85,SW,223,0.0,0.0,94,0.00,,,0.00,WeatherCatV1.15B25,2013-06-18 04:12:00,
2013-06-18 00:17:00,55.1,53.7,29.85,SW,223,0.0,1.0,95,0.00,,,0.00,WeatherCatV1.15B25,2013-06-18 04:17:00,
2013-06-18 00:22:00,55.0,53.6,29.85,SW,223,0.0,0.0,95,0.00,,,0.00,WeatherCatV1.15B25,2013-06-18 04:22:00,
2013-06-18 00:27:00,54.8,53.4,29.85,SW,223,2.0,2.0,95,0.00,,,0.00,WeatherCatV1.15B25,2013-06-18 04:27:00,
2013-06-18 00:32:00,54.6,53.2,29.85,SW,223,0.0,1.0,95,0.00,,,0.00,WeatherCatV1.15B25,2013-06-18 04:32:00,
2013-06-18 00:37:00,54.7,53.3,29.85,SW,223,0.0,0.0,95,0.00,,,0.00,WeatherCatV1.15B25,2013-06-18 04:37:00,
2013-06-18 00:42:00,54.6,53.2,29.85,SW,223,0.0,1.0,95,0.00,,,0.00,WeatherCatV1.15B25,2013-06-18 04:42:00,
2013-06-18 00:47:00,54.5,53.1,29.85,SW,223,0.0,0.0,95,0.00,,,0.00,WeatherCatV1.15B25,2013-06-18 04:47:00,
2013-06-18 00:53:00,54.5,53.1,29.85,SW,223,0.0,0.0,95,0.00,,,0.00,WeatherCatV1.15B25,2013-06-18 04:53:00,
2013-06-18 00:58:00,54.6,53.2,29.85,SW,223,0.0,1.0,95,0.00,,,0.00,WeatherCatV1.15B25,2013-06-18 04:58:00,
2013-06-18 01:03:00,54.6,53.2,29.86,East,94,2.0,3.0,95,0.00,,,0.00,WeatherCatV1.15B25,2013-06-18 05:03:00,
2013-06-18 01:08:00,54.5,53.1,29.86,East,91,0.0,0.0,95,0.00,,,0.01,WeatherCatV1.15B25,2013-06-18 05:08:00,
2013-06-18 01:13:00,54.4,53.0,29.86,ESE,103,0.0,0.0,95,0.00,,,0.01,WeatherCatV1.15B25,2013-06-18 05:13:00,
2013-06-18 01:18:00,54.5,53.1,29.86,ENE,67,1.0,4.0,95,0.00,,,0.01,WeatherCatV1.15B25,2013-06-18 05:18:00,
2013-06-18 01:23:00,54.3,52.9,29.86,West,265,0.0,0.0,95,0.00,,,0.01,WeatherCatV1.15B25,2013-06-18 05:23:00,
2013-06-18 01:28:00,54.3,52.9,29.86,SE,133,1.0,4.0,95,0.00,,,0.01,WeatherCatV1.15B25,2013-06-18 05:28:00,
2013-06-18 01:34:00,54.2,52.5,29.85,SE,133,0.0,0.0,94,0.00,,,0.01,WeatherCatV1.15B25,2013-06-18 05:34:00,
2013-06-18 01:40:00,54.1,52.4,29.84,SE,133,0.0,0.0,94,0.00,,,0.01,WeatherCatV1.15B25,2013-06-18 05:40:00,
2013-06-18 01:45:00,54.1,52.4,29.84,SE,133,0.0,0.0,94,0.00,,,0.01,WeatherCatV1.15B25,2013-06-18 05:45:00,
2013-06-18 01:50:00,53.9,52.2,29.84,SE,133,0.0,0.0,94,0.00,,,0.01,WeatherCatV1.15B25,2013-06-18 05:50:00,
2013-06-18 01:55:00,53.6,51.9,29.84,SE,133,0.0,0.0,94,0.00,,,0.01,WeatherCatV1.15B25,2013-06-18 05:55:00,
2013-06-18 02:00:00,53.3,51.6,29.84,SE,133,0.0,1.0,94,0.00,,,0.01,WeatherCatV1.15B25,2013-06-18 06:00:00,
2013-06-18 02:05:00,53.2,51.5,29.85,SE,133,0.0,1.0,94,0.00,,,0.01,WeatherCatV1.15B25,2013-06-18 06:05:00,
2013-06-18 02:10:00,53.0,51.3,29.85,SE,133,1.0,2.0,94,0.00,,,0.01,WeatherCatV1.15B25,2013-06-18 06:10:00,
2013-06-18 02:16:00,53.1,51.4,29.85,SE,133,2.0,2.0,94,0.00,,,0.01,WeatherCatV1.15B25,2013-06-18 06:16:00,
2013-06-18 02:21:00,53.0,51.3,29.85,WNW,283,0.0,1.0,94,0.00,,,0.01,WeatherCatV1.15B25,2013-06-18 06:21:00,
2013-06-18 02:26:00,53.2,51.5,29.85,WNW,284,0.0,0.0,94,0.00,,,0.01,WeatherCatV1.15B25,2013-06-18 06:26:00,
2013-06-18 02:31:00,53.2,51.5,29.85,WNW,302,0.0,2.0,94,0.00,,,0.01,WeatherCatV1.15B25,2013-06-18 06:31:00,
2013-06-18 02:36:00,53.1,51.4,29.85,WNW,302,0.0,3.0,94,0.00,,,0.01,WeatherCatV1.15B25,2013-06-18 06:36:00,
2013-06-18 02:41:00,53.1,51.4,29.86,WNW,302,1.0,1.0,94,0.00,,,0.01,WeatherCatV1.15B25,2013-06-18 06:41:00,
2013-06-18 02:46:00,53.0,51.3,29.86,NNE,16,0.0,0.0,94,0.00,,,0.01,WeatherCatV1.15B25,2013-06-18 06:46:00,
2013-06-18 02:51:00,53.0,51.3,29.85,NNE,16,0.0,0.0,94,0.00,,,0.01,WeatherCatV1.15B25,2013-06-18 06:51:00,
2013-06-18 02:56:00,52.9,51.2,29.85,NNE,16,0.0,0.0,94,0.00,,,0.01,WeatherCatV1.15B25,2013-06-18 06:56:00,
2013-06-18 03:01:00,52.8,51.1,29.85,NNE,16,0.0,0.0,94,0.00,,,0.01,WeatherCatV1.15B25,2013-06-18 07:01:00,
2013-06-18 03:06:00,52.6,50.9,29.86,NNE,15,0.0,0.0,94,0.00,,,0.01,WeatherCatV1.15B25,2013-06-18 07:06:00,
2013-06-18 03:11:00,52.4,50.7,29.86,NNE,16,0.0,1.0,94,0.00,,,0.01,WeatherCatV1.15B25,2013-06-18 07:11:00,
2013-06-18 03:16:00,52.3,50.6,29.85,NNE,16,0.0,0.0,94,0.00,,,0.01,WeatherCatV1.15B25,2013-06-18 07:16:00,
2013-06-18 03:21:00,52.2,50.5,29.85,NNE,16,0.0,0.0,94,0.00,,,0.01,WeatherCatV1.15B25,2013-06-18 07:21:00,
2013-06-18 03:26:00,51.9,50.2,29.86,NNE,16,0.0,0.0,94,0.00,,,0.01,WeatherCatV1.15B25,2013-06-18 07:26:00,
2013-06-18 03:31:00,51.8,50.1,29.85,NNE,16,0.0,0.0,94,0.00,,,0.01,WeatherCatV1.15B25,2013-06-18 07:31:00,
2013-06-18 03:36:00,51.5,49.8,29.85,NNE,16,0.0,0.0,94,0.00,,,0.01,WeatherCatV1.15B25,2013-06-18 07:36:00,
2013-06-18 03:41:00,51.4,49.7,29.85,NNE,16,0.0,0.0,94,0.00,,,0.01,WeatherCatV1.15B25,2013-06-18 07:41:00,
2013-06-18 03:46:00,51.2,49.5,29.85,NNE,15,0.0,0.0,94,0.00,,,0.01,WeatherCatV1.15B25,2013-06-18 07:46:00,
2013-06-18 03:51:00,51.0,49.3,29.85,NNE,16,0.0,0.0,94,0.00,,,0.01,WeatherCatV1.15B25,2013-06-18 07:51:00,
2013-06-18 03:56:00,50.8,49.1,29.85,NNE,16,0.0,0.0,94,0.00,,,0.01,WeatherCatV1.15B25,2013-06-18 07:56:00,
2013-06-18 04:01:00,50.7,49.0,29.85,NNE,16,0.0,0.0,94,0.00,,,0.01,WeatherCatV1.15B25,2013-06-18 08:01:00,
2013-06-18 04:06:00,50.6,48.9,29.85,NNE,16,0.0,0.0,94,0.00,,,0.01,WeatherCatV1.15B25,2013-06-18 08:06:00,
2013-06-18 04:11:00,50.4,48.7,29.85,NNE,15,0.0,0.0,94,0.00,,,0.01,WeatherCatV1.15B25,2013-06-18 08:11:00,
2013-06-18 04:16:00,50.3,48.6,29.85,NNE,16,0.0,0.0,94,0.00,,,0.01,WeatherCatV1.15B25,2013-06-18 08:16:00,
2013-06-18 04:21:00,50.2,48.5,29.85,NNE,15,0.0,0.0,94,0.00,,,0.01,WeatherCatV1.15B25,2013-06-18 08:21:00,
2013-06-18 04:26:00,50.1,48.4,29.86,NNE,15,0.0,0.0,94,0.00,,,0.01,WeatherCatV1.15B25,2013-06-18 08:26:00,
2013-06-18 04:31:00,50.2,48.5,29.86,NNE,16,0.0,0.0,94,0.00,,,0.01,WeatherCatV1.15B25,2013-06-18 08:31:00,
2013-06-18 04:36:00,50.1,48.7,29.86,NNE,16,0.0,0.0,95,0.00,,,0.01,WeatherCatV1.15B25,2013-06-18 08:36:00,
2013-06-18 04:41:00,50.0,48.6,29.86,NNE,15,0.0,0.0,95,0.00,,,0.01,WeatherCatV1.15B25,2013-06-18 08:41:00,
2013-06-18 04:46:00,50.0,48.6,29.86,NNE,16,0.0,0.0,95,0.00,,,0.01,WeatherCatV1.15B25,2013-06-18 08:46:00,
2013-06-18 04:51:00,50.1,48.7,29.87,NNE,16,0.0,0.0,95,0.00,,,0.01,WeatherCatV1.15B25,2013-06-18 08:51:00,
2013-06-18 04:56:00,50.3,48.9,29.86,NNE,15,0.0,0.0,95,0.00,,,0.01,WeatherCatV1.15B25,2013-06-18 08:56:00,
2013-06-18 05:01:00,50.3,48.9,29.87,NNE,15,0.0,0.0,95,0.00,,,0.01,WeatherCatV1.15B25,2013-06-18 09:01:00,
2013-06-18 05:06:00,50.0,48.6,29.87,NNE,15,0.0,0.0,95,0.00,,,0.01,WeatherCatV1.15B25,2013-06-18 09:06:00,
2013-06-18 05:11:00,49.9,48.5,29.87,NNE,16,0.0,1.0,95,0.00,,,0.01,WeatherCatV1.15B25,2013-06-18 09:11:00,
2013-06-18 05:16:00,49.8,48.4,29.87,NNE,16,0.0,0.0,95,0.00,,,0.01,WeatherCatV1.15B25,2013-06-18 09:16:00,
2013-06-18 05:22:00,49.6,48.2,29.88,NNE,15,0.0,0.0,95,0.00,,,0.01,WeatherCatV1.15B25,2013-06-18 09:22:00,
2013-06-18 05:27:00,49.5,48.1,29.88,NNE,15,0.0,0.0,95,0.00,,,0.01,WeatherCatV1.15B25,2013-06-18 09:27:00,
2013-06-18 05:32:00,49.5,48.1,29.88,NNE,16,0.0,0.0,95,0.00,,,0.01,WeatherCatV1.15B25,2013-06-18 09:32:00,
2013-06-18 05:37:00,49.4,48.0,29.88,NNE,15,0.0,0.0,95,0.00,,,0.01,WeatherCatV1.15B25,2013-06-18 09:37:00,
2013-06-18 05:42:00,49.4,48.0,29.88,NNE,15,0.0,0.0,95,0.00,,,0.01,WeatherCatV1.15B25,2013-06-18 09:42:00,
2013-06-18 05:47:00,49.4,48.0,29.89,NNE,15,0.0,0.0,95,0.00,,,0.01,WeatherCatV1.15B25,2013-06-18 09:47:00,
2013-06-18 05:53:00,49.4,48.0,29.89,NNE,16,0.0,0.0,95,0.00,,,0.01,WeatherCatV1.15B25,2013-06-18 09:53:00,
2013-06-18 05:58:00,49.3,47.9,29.89,NNE,16,0.0,0.0,95,0.00,,,0.01,WeatherCatV1.15B25,2013-06-18 09:58:00,
2013-06-18 06:03:00,49.8,48.4,29.89,NNE,15,0.0,0.0,95,0.00,,,0.01,WeatherCatV1.15B25,2013-06-18 10:03:00,
2013-06-18 06:08:00,50.1,48.7,29.89,NNE,16,0.0,0.0,95,0.00,,,0.01,WeatherCatV1.15B25,2013-06-18 10:08:00,
2013-06-18 06:13:00,49.8,48.4,29.89,NNE,16,0.0,0.0,95,0.00,,,0.01,WeatherCatV1.15B25,2013-06-18 10:13:00,
2013-06-18 06:18:00,49.8,48.4,29.90,NNE,15,0.0,0.0,95,0.00,,,0.01,WeatherCatV1.15B25,2013-06-18 10:18:00,
2013-06-18 06:23:00,50.2,49.1,29.90,NNE,15,0.0,0.0,96,0.00,,,0.01,WeatherCatV1.15B25,2013-06-18 10:23:00,
2013-06-18 06:28:00,50.4,49.3,29.90,NNE,16,0.0,0.0,96,0.00,,,0.01,WeatherCatV1.15B25,2013-06-18 10:28:00,
2013-06-18 06:33:00,50.9,49.8,29.89,NNE,16,0.0,0.0,96,0.00,,,0.01,WeatherCatV1.15B25,2013-06-18 10:33:00,
2013-06-18 06:38:00,51.2,50.1,29.89,NNE,16,0.0,0.0,96,0.00,,,0.01,WeatherCatV1.15B25,2013-06-18 10:38:00,
2013-06-18 06:43:00,51.4,50.3,29.89,NNE,15,0.0,0.0,96,0.00,,,0.01,WeatherCatV1.15B25,2013-06-18 10:43:00,
2013-06-18 06:48:00,51.5,50.4,29.89,NNE,15,0.0,0.0,96,0.00,,,0.01,WeatherCatV1.15B25,2013-06-18 10:48:00,
2013-06-18 06:53:00,51.7,50.6,29.89,NNE,15,0.0,0.0,96,0.00,,,0.01,WeatherCatV1.15B25,2013-06-18 10:53:00,
2013-06-18 06:58:00,51.8,50.7,29.89,NNE,15,0.0,0.0,96,0.00,,,0.01,WeatherCatV1.15B25,2013-06-18 10:58:00,
2013-06-18 07:03:00,52.0,50.9,29.89,NNE,16,0.0,0.0,96,0.00,,,0.01,WeatherCatV1.15B25,2013-06-18 11:03:00,
2013-06-18 07:08:00,52.2,51.1,29.90,NNE,28,0.0,2.0,96,0.00,,,0.01,WeatherCatV1.15B25,2013-06-18 11:08:00,
2013-06-18 07:13:00,52.4,51.3,29.90,NNE,28,0.0,0.0,96,0.00,,,0.01,WeatherCatV1.15B25,2013-06-18 11:13:00,
2013-06-18 07:18:00,52.7,51.6,29.90,NE,41,1.0,4.0,96,0.00,,,0.01,WeatherCatV1.15B25,2013-06-18 11:18:00,
2013-06-18 07:23:00,52.9,51.8,29.90,NE,42,0.0,0.0,96,0.00,,,0.01,WeatherCatV1.15B25,2013-06-18 11:23:00,
2013-06-18 07:29:00,53.2,52.1,29.90,NE,42,0.0,0.0,96,0.00,,,0.01,WeatherCatV1.15B25,2013-06-18 11:29:00,
2013-06-18 07:34:00,53.5,52.4,29.90,NE,41,0.0,1.0,96,0.00,,,0.01,WeatherCatV1.15B25,2013-06-18 11:34:00,
2013-06-18 07:39:00,53.8,52.7,29.90,NE,41,0.0,0.0,96,0.00,,,0.01,WeatherCatV1.15B25,2013-06-18 11:39:00,
2013-06-18 07:44:00,54.1,53.0,29.90,NE,42,0.0,2.0,96,0.00,,,0.01,WeatherCatV1.15B25,2013-06-18 11:44:00,
2013-06-18 07:49:00,54.3,53.2,29.90,NE,42,0.0,0.0,96,0.00,,,0.01,WeatherCatV1.15B25,2013-06-18 11:49:00,
2013-06-18 07:54:00,54.8,53.7,29.90,NE,42,0.0,2.0,96,0.00,,,0.01,WeatherCatV1.15B25,2013-06-18 11:54:00,
2013-06-18 08:00:00,55.3,54.2,29.90,NE,41,0.0,0.0,96,0.00,,,0.01,WeatherCatV1.15B25,2013-06-18 12:00:00,
2013-06-18 08:05:00,55.8,54.7,29.90,NE,42,0.0,0.0,96,0.00,,,0.01,WeatherCatV1.15B25,2013-06-18 12:05:00,
2013-06-18 08:10:00,56.3,55.2,29.90,NE,42,0.0,0.0,96,0.00,,,0.01,WeatherCatV1.15B25,2013-06-18 12:10:00,
2013-06-18 08:15:00,56.4,55.3,29.91,NE,41,0.0,1.0,96,0.00,,,0.01,WeatherCatV1.15B25,2013-06-18 12:15:00,
2013-06-18 08:20:00,56.4,55.3,29.91,NE,42,0.0,0.0,96,0.00,,,0.01,WeatherCatV1.15B25,2013-06-18 12:20:00,
2013-06-18 08:25:00,56.7,55.6,29.91,NE,42,0.0,0.0,96,0.00,,,0.01,WeatherCatV1.15B25,2013-06-18 12:25:00,
2013-06-18 08:30:00,57.0,55.9,29.91,NE,43,0.0,0.0,96,0.00,,,0.01,WeatherCatV1.15B25,2013-06-18 12:30:00,
2013-06-18 08:35:00,57.1,56.0,29.91,NE,43,0.0,0.0,96,0.00,,,0.01,WeatherCatV1.15B25,2013-06-18 12:35:00,
2013-06-18 08:40:00,57.1,55.7,29.91,NE,43,0.0,0.0,95,0.00,,,0.01,WeatherCatV1.15B25,2013-06-18 12:40:00,
2013-06-18 08:45:00,57.2,55.8,29.91,NE,43,0.0,0.0,95,0.00,,,0.01,WeatherCatV1.15B25,2013-06-18 12:45:00,
2013-06-18 08:50:00,57.1,55.7,29.91,NE,43,0.0,2.0,95,0.00,,,0.01,WeatherCatV1.15B25,2013-06-18 12:50:00,
2013-06-18 08:55:00,57.1,55.4,29.91,NE,42,0.0,1.0,94,0.00,,,0.01,WeatherCatV1.15B25,2013-06-18 12:55:00,
2013-06-18 09:00:00,57.3,55.6,29.91,NE,42,0.0,0.0,94,0.00,,,0.01,WeatherCatV1.15B25,2013-06-18 13:00:00,
2013-06-18 09:05:00,57.2,54.9,29.91,ENE,69,0.0,2.0,92,0.00,,,0.01,WeatherCatV1.15B25,2013-06-18 13:05:00,
2013-06-18 09:10:00,57.4,55.1,29.91,ENE,69,0.0,1.0,92,0.00,,,0.01,WeatherCatV1.15B25,2013-06-18 13:10:00,
2013-06-18 09:15:00,57.5,54.9,29.91,East,82,0.0,3.0,91,0.00,,,0.01,WeatherCatV1.15B25,2013-06-18 13:15:00,
2013-06-18 09:20:00,57.6,54.4,29.91,ESE,119,0.0,2.0,89,0.00,,,0.01,WeatherCatV1.15B25,2013-06-18 13:20:00,
2013-06-18 09:25:00,57.9,54.7,29.91,SE,140,0.0,1.0,89,0.00,,,0.01,WeatherCatV1.15B25,2013-06-18 13:25:00,
2013-06-18 09:30:00,58.2,55.0,29.90,SE,140,0.0,1.0,89,0.00,,,0.01,WeatherCatV1.15B25,2013-06-18 13:30:00,
2013-06-18 09:35:00,58.5,55.6,29.90,SE,140,0.0,0.0,90,0.00,,,0.01,WeatherCatV1.15B25,2013-06-18 13:35:00,
2013-06-18 09:40:00,58.4,55.2,29.91,SE,140,0.0,0.0,89,0.00,,,0.01,WeatherCatV1.15B25,2013-06-18 13:40:00,
2013-06-18 09:45:00,58.3,55.1,29.91,SE,140,0.0,0.0,89,0.00,,,0.01,WeatherCatV1.15B25,2013-06-18 13:45:00,
2013-06-18 09:50:00,58.1,53.6,29.91,SE,141,0.0,0.0,85,0.00,,,0.01,WeatherCatV1.15B25,2013-06-18 13:50:00,
2013-06-18 09:55:00,58.2,54.3,29.90,SE,141,0.0,0.0,87,0.00,,,0.01,WeatherCatV1.15B25,2013-06-18 13:55:00,
2013-06-18 10:00:00,58.7,55.5,29.90,SE,141,0.0,2.0,89,0.00,,,0.01,WeatherCatV1.15B25,2013-06-18 14:00:00,
2013-06-18 10:05:00,58.9,55.7,29.91,SE,141,0.0,0.0,89,0.00,,,0.01,WeatherCatV1.15B25,2013-06-18 14:05:00,
2013-06-18 10:10:00,58.8,55.6,29.91,SE,141,0.0,1.0,89,0.00,,,0.01,WeatherCatV1.15B25,2013-06-18 14:10:00,
2013-06-18 10:15:00,59.0,56.1,29.91,SE,141,0.0,0.0,90,0.00,,,0.01,WeatherCatV1.15B25,2013-06-18 14:15:00,
2013-06-18 10:20:00,59.0,55.8,29.91,SE,134,0.0,0.0,89,0.00,,,0.01,WeatherCatV1.15B25,2013-06-18 14:20:00,
2013-06-18 10:25:00,59.0,56.1,29.91,SE,134,0.0,0.0,90,0.00,,,0.01,WeatherCatV1.15B25,2013-06-18 14:25:00,
2013-06-18 10:30:00,58.9,56.0,29.91,SE,134,0.0,0.0,90,0.00,,,0.01,WeatherCatV1.15B25,2013-06-18 14:30:00,
2013-06-18 10:35:00,58.6,55.4,29.92,SE,146,1.0,2.0,89,0.00,,,0.01,WeatherCatV1.15B25,2013-06-18 14:35:00,
2013-06-18 10:40:00,58.2,54.7,29.93,SE,138,0.0,1.0,88,0.00,,,0.01,WeatherCatV1.15B25,2013-06-18 14:40:00,
2013-06-18 10:45:00,57.9,54.7,29.94,SE,134,0.0,0.0,89,0.00,,,0.01,WeatherCatV1.15B25,2013-06-18 14:45:00,
2013-06-18 10:50:00,57.6,54.7,29.94,SE,129,0.0,0.0,90,0.00,,,0.01,WeatherCatV1.15B25,2013-06-18 14:50:00,
2013-06-18 10:55:00,57.3,54.1,29.94,SE,129,0.0,0.0,89,0.00,,,0.01,WeatherCatV1.15B25,2013-06-18 14:55:00,
2013-06-18 11:00:00,57.1,53.6,29.95,SE,125,0.0,1.0,88,0.00,,,0.01,WeatherCatV1.15B25,2013-06-18 15:00:00,
2013-06-18 11:05:00,57.2,53.7,29.94,SE,125,0.0,0.0,88,0.00,,,0.01,WeatherCatV1.15B25,2013-06-18 15:05:00,
2013-06-18 11:10:00,57.4,53.9,29.94,SE,125,0.0,0.0,88,0.00,,,0.01,WeatherCatV1.15B25,2013-06-18 15:10:00,
2013-06-18 11:15:00,57.4,54.2,29.94,SE,125,0.0,0.0,89,0.00,,,0.01,WeatherCatV1.15B25,2013-06-18 15:15:00,
2013-06-18 11:20:00,57.3,53.8,29.95,SE,125,0.0,0.0,88,0.00,,,0.01,WeatherCatV1.15B25,2013-06-18 15:20:00,
2013-06-18 11:25:00,57.3,53.8,29.96,ESE,122,0.0,0.0,88,0.00,,,0.01,WeatherCatV1.15B25,2013-06-18 15:25:00,
2013-06-18 11:31:00,57.1,53.6,29.96,ESE,123,0.0,0.0,88,0.00,,,0.01,WeatherCatV1.15B25,2013-06-18 15:31:00,
2013-06-18 11:36:00,56.9,53.1,29.96,SE,132,0.0,0.0,87,0.00,,,0.01,WeatherCatV1.15B25,2013-06-18 15:36:00,
2013-06-18 11:41:00,56.8,53.0,29.96,East,99,0.0,0.0,87,0.00,,,0.01,WeatherCatV1.15B25,2013-06-18 15:41:00,
2013-06-18 11:46:00,56.7,52.9,29.95,East,101,0.0,0.0,87,0.00,,,0.01,WeatherCatV1.15B25,2013-06-18 15:46:00,
2013-06-18 11:51:00,56.4,52.3,29.95,East,101,0.0,0.0,86,0.00,,,0.01,WeatherCatV1.15B25,2013-06-18 15:51:00,
2013-06-18 11:56:00,56.3,52.5,29.95,East,101,0.0,0.0,87,0.00,,,0.01,WeatherCatV1.15B25,2013-06-18 15:56:00,
2013-06-18 12:01:00,56.0,52.2,29.95,East,101,0.0,0.0,87,0.00,,,0.01,WeatherCatV1.15B25,2013-06-18 16:01:00,
2013-06-18 12:06:00,55.8,52.0,29.95,East,101,0.0,0.0,87,0.00,,,0.01,WeatherCatV1.15B25,2013-06-18 16:06:00,
2013-06-18 12:11:00,55.7,52.2,29.95,East,101,0.0,0.0,88,0.00,,,0.01,WeatherCatV1.15B25,2013-06-18 16:11:00,
2013-06-18 12:16:00,55.9,52.7,29.95,East,101,0.0,0.0,89,0.00,,,0.01,WeatherCatV1.15B25,2013-06-18 16:16:00,
2013-06-18 12:21:00,56.2,53.3,29.95,East,101,0.0,0.0,90,0.00,,,0.01,WeatherCatV1.15B25,2013-06-18 16:21:00,
2013-06-18 12:26:00,56.4,53.5,29.94,East,101,0.0,0.0,90,0.00,,,0.01,WeatherCatV1.15B25,2013-06-18 16:26:00,
2013-06-18 12:31:00,56.6,54.0,29.94,East,101,0.0,0.0,91,0.00,,,0.01,WeatherCatV1.15B25,2013-06-18 16:31:00,
2013-06-18 12:36:00,56.7,54.1,29.94,East,101,0.0,0.0,91,0.00,,,0.01,WeatherCatV1.15B25,2013-06-18 16:36:00,
2013-06-18 12:41:00,56.9,54.3,29.94,East,101,0.0,0.0,91,0.00,,,0.01,WeatherCatV1.15B25,2013-06-18 16:41:00,
2013-06-18 12:46:00,57.0,54.4,29.94,East,101,0.0,0.0,91,0.00,,,0.01,WeatherCatV1.15B25,2013-06-18 16:46:00,
2013-06-18 12:51:00,57.3,54.7,29.94,East,101,0.0,0.0,91,0.00,,,0.01,WeatherCatV1.15B25,2013-06-18 16:51:00,
2013-06-18 12:56:00,57.3,54.7,29.93,East,101,0.0,0.0,91,0.00,,,0.01,WeatherCatV1.15B25,2013-06-18 16:56:00,
2013-06-18 13:01:00,57.4,54.8,29.94,East,101,0.0,0.0,91,0.00,,,0.01,WeatherCatV1.15B25,2013-06-18 17:01:00,
2013-06-18 13:06:00,57.5,54.9,29.94,East,101,0.0,0.0,91,0.00,,,0.01,WeatherCatV1.15B25,2013-06-18 17:06:00,
2013-06-18 13:11:00,57.5,54.6,29.93,East,101,0.0,0.0,90,0.00,,,0.01,WeatherCatV1.15B25,2013-06-18 17:11:00,
2013-06-18 13:17:00,58.0,55.1,29.94,East,101,0.0,0.0,90,0.00,,,0.01,WeatherCatV1.15B25,2013-06-18 17:17:00,
2013-06-18 13:22:00,58.2,55.3,29.94,East,101,0.0,0.0,90,0.00,,,0.01,WeatherCatV1.15B25,2013-06-18 17:22:00,
2013-06-18 13:27:00,58.5,54.6,29.93,East,101,0.0,0.0,87,0.00,,,0.01,WeatherCatV1.15B25,2013-06-18 17:27:00,
2013-06-18 13:32:00,58.8,54.6,29.93,East,101,0.0,0.0,86,0.00,,,0.01,WeatherCatV1.15B25,2013-06-18 17:32:00,
2013-06-18 13:37:00,59.0,54.8,29.93,East,101,0.0,0.0,86,0.00,,,0.01,WeatherCatV1.15B25,2013-06-18 17:37:00,
2013-06-18 13:42:00,59.2,54.7,29.93,East,101,0.0,0.0,85,0.00,,,0.01,WeatherCatV1.15B25,2013-06-18 17:42:00,
2013-06-18 13:47:00,60.0,52.8,29.93,East,101,0.0,1.0,77,0.00,,,0.01,WeatherCatV1.15B25,2013-06-18 17:47:00,
2013-06-18 13:52:00,61.0,53.7,29.93,East,101,0.0,1.0,77,0.00,,,0.01,WeatherCatV1.15B25,2013-06-18 17:52:00,
2013-06-18 13:57:00,61.8,54.2,29.93,East,101,0.0,0.0,76,0.00,,,0.01,WeatherCatV1.15B25,2013-06-18 17:57:00,
2013-06-18 14:02:00,62.6,54.6,29.92,WSW,250,2.0,2.0,75,0.00,,,0.01,WeatherCatV1.15B25,2013-06-18 18:02:00,
2013-06-18 14:07:00,63.4,55.7,29.92,WSW,257,0.0,0.0,76,0.00,,,0.01,WeatherCatV1.15B25,2013-06-18 18:07:00,
2013-06-18 14:12:00,64.4,55.2,29.91,South,169,0.0,1.0,72,0.00,,,0.01,WeatherCatV1.15B25,2013-06-18 18:12:00,
2013-06-18 14:17:00,65.5,55.4,29.92,SSE,168,0.0,1.0,70,0.00,,,0.01,WeatherCatV1.15B25,2013-06-18 18:17:00,
2013-06-18 14:22:00,65.6,55.1,29.91,ENE,70,0.0,0.0,69,0.00,,,0.01,WeatherCatV1.15B25,2013-06-18 18:22:00,
2013-06-18 14:27:00,66.0,54.3,29.91,ENE,70,0.0,1.0,66,0.00,,,0.01,WeatherCatV1.15B25,2013-06-18 18:27:00,
2013-06-18 14:32:00,66.4,55.9,29.91,ENE,69,0.0,1.0,69,0.00,,,0.01,WeatherCatV1.15B25,2013-06-18 18:32:00,
2013-06-18 14:38:00,66.9,52.6,29.90,ENE,67,0.0,3.0,60,0.00,,,0.01,WeatherCatV1.15B25,2013-06-18 18:38:00,
2013-06-18 14:43:00,67.1,56.2,29.90,ENE,67,0.0,1.0,68,0.00,,,0.01,WeatherCatV1.15B25,2013-06-18 18:43:00,
2013-06-18 14:48:00,67.6,50.8,29.90,North,5,0.0,3.0,55,0.00,,,0.01,WeatherCatV1.15B25,2013-06-18 18:48:00,
2013-06-18 14:53:00,67.6,55.8,29.90,North,5,0.0,0.0,66,0.00,,,0.01,WeatherCatV1.15B25,2013-06-18 18:53:00,
2013-06-18 14:58:00,67.7,53.3,29.90,North,9,0.0,0.0,60,0.00,,,0.01,WeatherCatV1.15B25,2013-06-18 18:58:00,
2013-06-18 15:03:00,68.1,54.1,29.90,SSE,161,0.0,1.0,61,0.00,,,0.01,WeatherCatV1.15B25,2013-06-18 19:03:00,
2013-06-18 15:09:00,69.0,58.0,29.89,WSW,250,1.0,1.0,68,0.00,,,0.01,WeatherCatV1.15B25,2013-06-18 19:09:00,
2013-06-18 15:14:00,69.5,57.6,29.89,ESE,103,0.0,1.0,66,0.00,,,0.01,WeatherCatV1.15B25,2013-06-18 19:14:00,
2013-06-18 15:19:00,69.7,57.0,29.89,East,101,0.0,1.0,64,0.00,,,0.01,WeatherCatV1.15B25,2013-06-18 19:19:00,
2013-06-18 15:24:00,69.8,56.6,29.90,ESE,121,0.0,3.0,63,0.00,,,0.01,WeatherCatV1.15B25,2013-06-18 19:24:00,
2013-06-18 15:29:00,69.5,57.2,29.89,ESE,121,0.0,1.0,65,0.00,,,0.01,WeatherCatV1.15B25,2013-06-18 19:29:00,
2013-06-18 15:34:00,69.0,52.6,29.89,ESE,121,0.0,0.0,56,0.00,,,0.01,WeatherCatV1.15B25,2013-06-18 19:34:00,
2013-06-18 15:39:00,68.5,54.5,29.89,ESE,121,0.0,0.0,61,0.00,,,0.01,WeatherCatV1.15B25,2013-06-18 19:39:00,
2013-06-18 15:44:00,68.2,54.7,29.90,ESE,121,0.0,0.0,62,0.00,,,0.01,WeatherCatV1.15B25,2013-06-18 19:44:00,
2013-06-18 15:49:00,67.9,54.4,29.90,SSE,152,0.0,1.0,62,0.00,,,0.01,WeatherCatV1.15B25,2013-06-18 19:49:00,
2013-06-18 15:54:00,67.3,56.0,29.89,WSW,258,0.0,3.0,67,0.00,,,0.01,WeatherCatV1.15B25,2013-06-18 19:54:00,
2013-06-18 15:59:00,67.4,55.2,29.89,WSW,257,1.0,1.0,65,0.00,,,0.01,WeatherCatV1.15B25,2013-06-18 19:59:00,
2013-06-18 16:04:00,67.1,55.8,29.90,WSW,258,0.0,0.0,67,0.00,,,0.01,WeatherCatV1.15B25,2013-06-18 20:04:00,
2013-06-18 16:09:00,66.8,54.6,29.90,WSW,258,0.0,0.0,65,0.00,,,0.01,WeatherCatV1.15B25,2013-06-18 20:09:00,
2013-06-18 16:14:00,66.8,54.6,29.89,WSW,257,0.0,0.0,65,0.00,,,0.01,WeatherCatV1.15B25,2013-06-18 20:14:00,
2013-06-18 16:19:00,67.1,53.6,29.90,WSW,257,0.0,0.0,62,0.00,,,0.01,WeatherCatV1.15B25,2013-06-18 20:19:00,
2013-06-18 16:24:00,67.0,54.4,29.90,WSW,256,0.0,2.0,64,0.00,,,0.01,WeatherCatV1.15B25,2013-06-18 20:24:00,
2013-06-18 16:29:00,66.5,53.9,29.90,WSW,257,0.0,0.0,64,0.00,,,0.01,WeatherCatV1.15B25,2013-06-18 20:29:00,
2013-06-18 16:34:00,66.4,55.1,29.89,WSW,257,0.0,0.0,67,0.00,,,0.01,WeatherCatV1.15B25,2013-06-18 20:34:00,
2013-06-18 16:39:00,66.3,55.8,29.89,WSW,257,0.0,0.0,69,0.00,,,0.01,WeatherCatV1.15B25,2013-06-18 20:39:00,
2013-06-18 16:44:00,66.0,52.6,29.89,West,259,0.0,2.0,62,0.00,,,0.01,WeatherCatV1.15B25,2013-06-18 20:44:00,
2013-06-18 16:49:00,65.8,52.8,29.89,West,259,0.0,0.0,63,0.00,,,0.01,WeatherCatV1.15B25,2013-06-18 20:49:00,
2013-06-18 16:54:00,65.9,55.0,29.90,West,259,0.0,0.0,68,0.00,,,0.01,WeatherCatV1.15B25,2013-06-18 20:54:00,
2013-06-18 16:59:00,66.1,53.6,29.89,West,259,0.0,0.0,64,0.00,,,0.01,WeatherCatV1.15B25,2013-06-18 20:59:00,
2013-06-18 17:04:00,66.1,53.1,29.90,West,259,0.0,1.0,63,0.00,,,0.01,WeatherCatV1.15B25,2013-06-18 21:04:00,
2013-06-18 17:09:00,65.9,54.6,29.90,West,265,0.0,2.0,67,0.00,,,0.01,WeatherCatV1.15B25,2013-06-18 21:09:00,
2013-06-18 17:14:00,65.5,55.1,29.90,West,264,0.0,0.0,69,0.00,,,0.01,WeatherCatV1.15B25,2013-06-18 21:14:00,
2013-06-18 17:19:00,65.2,55.2,29.90,West,266,0.0,0.0,70,0.00,,,0.01,WeatherCatV1.15B25,2013-06-18 21:19:00,
2013-06-18 17:25:00,65.0,54.6,29.90,East,96,0.0,3.0,69,0.00,,,0.01,WeatherCatV1.15B25,2013-06-18 21:25:00,
2013-06-18 17:30:00,64.7,55.5,29.90,WSW,244,0.0,1.0,72,0.00,,,0.01,WeatherCatV1.15B25,2013-06-18 21:30:00,
2013-06-18 17:35:00,64.4,54.8,29.91,West,269,0.0,1.0,71,0.00,,,0.01,WeatherCatV1.15B25,2013-06-18 21:35:00,
2013-06-18 17:40:00,64.3,55.8,29.91,West,269,0.0,1.0,74,0.00,,,0.01,WeatherCatV1.15B25,2013-06-18 21:40:00,
2013-06-18 17:45:00,64.2,55.7,29.91,West,268,1.0,1.0,74,0.00,,,0.01,WeatherCatV1.15B25,2013-06-18 21:45:00,
2013-06-18 17:50:00,63.9,55.1,29.92,West,274,0.0,1.0,73,0.00,,,0.01,WeatherCatV1.15B25,2013-06-18 21:50:00,
2013-06-18 17:55:00,63.6,55.2,29.91,West,275,0.0,0.0,74,0.00,,,0.01,WeatherCatV1.15B25,2013-06-18 21:55:00,
2013-06-18 18:00:00,63.2,55.1,29.91,West,277,0.0,0.0,75,0.00,,,0.01,WeatherCatV1.15B25,2013-06-18 22:00:00,
2013-06-18 18:05:00,63.1,55.8,29.91,West,277,0.0,0.0,77,0.00,,,0.01,WeatherCatV1.15B25,2013-06-18 22:05:00,
2013-06-18 18:10:00,62.9,55.6,29.91,West,278,0.0,0.0,77,0.00,,,0.01,WeatherCatV1.15B25,2013-06-18 22:10:00,
2013-06-18 18:15:00,62.8,55.5,29.92,West,267,0.0,2.0,77,0.00,,,0.01,WeatherCatV1.15B25,2013-06-18 22:15:00,
2013-06-18 18:20:00,62.8,55.5,29.92,West,267,1.0,1.0,77,0.00,,,0.01,WeatherCatV1.15B25,2013-06-18 22:20:00,
2013-06-18 18:25:00,62.6,55.3,29.92,West,269,0.0,1.0,77,0.00,,,0.01,WeatherCatV1.15B25,2013-06-18 22:25:00,
2013-06-18 18:30:00,62.5,55.5,29.91,West,269,0.0,0.0,78,0.00,,,0.01,WeatherCatV1.15B25,2013-06-18 22:30:00,
2013-06-18 18:35:00,62.4,55.1,29.91,West,268,0.0,1.0,77,0.00,,,0.01,WeatherCatV1.15B25,2013-06-18 22:35:00,
2013-06-18 18:40:00,62.2,54.9,29.91,West,269,0.0,1.0,77,0.00,,,0.01,WeatherCatV1.15B25,2013-06-18 22:40:00,
2013-06-18 18:45:00,62.1,54.8,29.91,West,269,0.0,0.0,77,0.00,,,0.01,WeatherCatV1.15B25,2013-06-18 22:45:00,
2013-06-18 18:50:00,61.8,54.9,29.91,West,269,0.0,0.0,78,0.00,,,0.01,WeatherCatV1.15B25,2013-06-18 22:50:00,
2013-06-18 18:55:00,61.6,54.3,29.92,West,268,0.0,1.0,77,0.00,,,0.01,WeatherCatV1.15B25,2013-06-18 22:55:00,
2013-06-18 19:00:00,61.4,54.5,29.91,West,269,0.0,0.0,78,0.00,,,0.01,WeatherCatV1.15B25,2013-06-18 23:00:00,
2013-06-18 19:05:00,61.1,54.9,29.91,West,269,0.0,0.0,80,0.00,,,0.01,WeatherCatV1.15B25,2013-06-18 23:05:00,
2013-06-18 19:10:00,60.9,55.0,29.91,West,269,0.0,0.0,81,0.00,,,0.01,WeatherCatV1.15B25,2013-06-18 23:10:00,
2013-06-18 19:15:00,60.6,55.1,29.91,West,270,0.0,0.0,82,0.00,,,0.01,WeatherCatV1.15B25,2013-06-18 23:15:00,
2013-06-18 19:20:00,60.2,55.0,29.92,West,271,0.0,0.0,83,0.00,,,0.01,WeatherCatV1.15B25,2013-06-18 23:20:00,
2013-06-18 19:25:00,59.7,54.5,29.91,West,270,0.0,0.0,83,0.00,,,0.01,WeatherCatV1.15B25,2013-06-18 23:25:00,
2013-06-18 19:30:00,59.4,54.2,29.92,West,271,0.0,0.0,83,0.00,,,0.01,WeatherCatV1.15B25,2013-06-18 23:30:00,
2013-06-18 19:35:00,59.1,53.9,29.92,West,271,0.0,0.0,83,0.00,,,0.01,WeatherCatV1.15B25,2013-06-18 23:35:00,
2013-06-18 19:40:00,59.0,54.2,29.92,West,271,0.0,0.0,84,0.00,,,0.01,WeatherCatV1.15B25,2013-06-18 23:40:00,
2013-06-18 19:45:00,59.0,54.2,29.92,West,271,0.0,0.0,84,0.00,,,0.01,WeatherCatV1.15B25,2013-06-18 23:45:00,
2013-06-18 19:50:00,59.0,54.5,29.92,West,268,0.0,0.0,85,0.00,,,0.01,WeatherCatV1.15B25,2013-06-18 23:50:00,
2013-06-18 19:55:00,58.7,54.5,29.92,West,269,0.0,0.0,86,0.00,,,0.01,WeatherCatV1.15B25,2013-06-18 23:55:00,
2013-06-18 20:00:00,58.5,54.3,29.92,West,269,0.0,0.0,86,0.00,,,0.01,WeatherCatV1.15B25,2013-06-19 00:00:00,
2013-06-18 20:05:00,58.3,54.4,29.92,West,268,0.0,0.0,87,0.00,,,0.01,WeatherCatV1.15B25,2013-06-19 00:05:00,
2013-06-18 20:10:00,58.0,54.2,29.92,West,268,0.0,0.0,87,0.00,,,0.01,WeatherCatV1.15B25,2013-06-19 00:10:00,
2013-06-18 20:15:00,57.7,53.9,29.92,West,268,0.0,0.0,87,0.00,,,0.01,WeatherCatV1.15B25,2013-06-19 00:15:00,
2013-06-18 20:20:00,57.4,53.9,29.92,West,268,0.0,0.0,88,0.00,,,0.01,WeatherCatV1.15B25,2013-06-19 00:20:00,
2013-06-18 20:25:00,57.1,53.6,29.92,West,268,0.0,0.0,88,0.00,,,0.01,WeatherCatV1.15B25,2013-06-19 00:25:00,
2013-06-18 20:30:00,56.9,53.4,29.92,West,268,0.0,0.0,88,0.00,,,0.01,WeatherCatV1.15B25,2013-06-19 00:30:00,
2013-06-18 20:35:00,56.7,53.5,29.91,West,268,0.0,0.0,89,0.00,,,0.01,WeatherCatV1.15B25,2013-06-19 00:35:00,
2013-06-18 20:40:00,56.4,53.2,29.91,West,268,0.0,0.0,89,0.00,,,0.01,WeatherCatV1.15B25,2013-06-19 00:40:00,
2013-06-18 20:45:00,56.1,52.9,29.91,West,268,0.0,0.0,89,0.00,,,0.01,WeatherCatV1.15B25,2013-06-19 00:45:00,
2013-06-18 20:50:00,55.8,52.6,29.91,West,268,0.0,0.0,89,0.00,,,0.01,WeatherCatV1.15B25,2013-06-19 00:50:00,
2013-06-18 20:55:00,55.5,52.6,29.91,West,268,0.0,0.0,90,0.00,,,0.01,WeatherCatV1.15B25,2013-06-19 00:55:00,
2013-06-18 21:00:00,55.2,52.3,29.91,West,268,0.0,0.0,90,0.00,,,0.01,WeatherCatV1.15B25,2013-06-19 01:00:00,
2013-06-18 21:05:00,54.9,52.0,29.91,West,268,0.0,0.0,90,0.00,,,0.01,WeatherCatV1.15B25,2013-06-19 01:05:00,
2013-06-18 21:10:00,54.6,51.7,29.91,West,268,0.0,0.0,90,0.00,,,0.01,WeatherCatV1.15B25,2013-06-19 01:10:00,
2013-06-18 21:15:00,54.4,51.5,29.92,West,268,0.0,0.0,90,0.00,,,0.01,WeatherCatV1.15B25,2013-06-19 01:15:00,
2013-06-18 21:20:00,54.1,51.2,29.92,West,268,0.0,0.0,90,0.00,,,0.01,WeatherCatV1.15B25,2013-06-19 01:20:00,
2013-06-18 21:25:00,53.9,51.3,29.92,West,268,0.0,0.0,91,0.00,,,0.01,WeatherCatV1.15B25,2013-06-19 01:25:00,
2013-06-18 21:30:00,53.6,51.0,29.92,West,268,0.0,0.0,91,0.00,,,0.01,WeatherCatV1.15B25,2013-06-19 01:30:00,
2013-06-18 21:35:00,53.3,50.7,29.93,West,268,0.0,0.0,91,0.00,,,0.01,WeatherCatV1.15B25,2013-06-19 01:35:00,
2013-06-18 21:40:00,53.0,50.4,29.93,West,268,0.0,0.0,91,0.00,,,0.01,WeatherCatV1.15B25,2013-06-19 01:40:00,
2013-06-18 21:45:00,52.8,50.2,29.93,West,268,0.0,0.0,91,0.00,,,0.01,WeatherCatV1.15B25,2013-06-19 01:45:00,
2013-06-18 21:50:00,52.5,49.9,29.93,West,268,0.0,0.0,91,0.00,,,0.01,WeatherCatV1.15B25,2013-06-19 01:50:00,
2013-06-18 21:55:00,52.3,49.8,29.93,West,268,0.0,0.0,91,0.00,,,0.01,WeatherCatV1.15B25,2013-06-19 01:55:00,
2013-06-18 22:00:00,52.0,49.5,29.94,West,268,0.0,0.0,91,0.00,,,0.01,WeatherCatV1.15B25,2013-06-19 02:00:00,
2013-06-18 22:05:00,51.7,49.2,29.94,West,268,0.0,0.0,91,0.00,,,0.01,WeatherCatV1.15B25,2013-06-19 02:05:00,
2013-06-18 22:10:00,51.5,49.0,29.94,West,268,0.0,0.0,91,0.00,,,0.01,WeatherCatV1.15B25,2013-06-19 02:10:00,
2013-06-18 22:15:00,51.2,48.7,29.94,West,268,0.0,0.0,91,0.00,,,0.01,WeatherCatV1.15B25,2013-06-19 02:15:00,
2013-06-18 22:20:00,51.0,48.8,29.94,West,268,0.0,0.0,92,0.00,,,0.01,WeatherCatV1.15B25,2013-06-19 02:20:00,
2013-06-18 22:25:00,50.7,48.5,29.94,West,268,0.0,0.0,92,0.00,,,0.01,WeatherCatV1.15B25,2013-06-19 02:25:00,
2013-06-18 22:30:00,50.5,48.3,29.94,West,268,0.0,0.0,92,0.00,,,0.01,WeatherCatV1.15B25,2013-06-19 02:30:00,
2013-06-18 22:35:00,50.3,48.1,29.95,West,268,0.0,0.0,92,0.00,,,0.01,WeatherCatV1.15B25,2013-06-19 02:35:00,
2013-06-18 22:40:00,50.1,47.9,29.95,West,268,0.0,0.0,92,0.00,,,0.01,WeatherCatV1.15B25,2013-06-19 02:40:00,
2013-06-18 22:45:00,49.9,47.7,29.94,West,268,0.0,0.0,92,0.00,,,0.01,WeatherCatV1.15B25,2013-06-19 02:45:00,
2013-06-18 22:50:00,49.7,47.5,29.94,West,268,0.0,0.0,92,0.00,,,0.01,WeatherCatV1.15B25,2013-06-19 02:50:00,
2013-06-18 22:55:00,49.5,47.3,29.94,West,268,0.0,0.0,92,0.00,,,0.01,WeatherCatV1.15B25,2013-06-19 02:55:00,
2013-06-18 23:00:00,49.3,47.1,29.94,West,268,0.0,0.0,92,0.00,,,0.01,WeatherCatV1.15B25,2013-06-19 03:00:00,
2013-06-18 23:05:00,49.0,46.8,29.94,West,268,0.0,0.0,92,0.00,,,0.01,WeatherCatV1.15B25,2013-06-19 03:05:00,
2013-06-18 23:10:00,48.7,46.5,29.94,West,268,0.0,0.0,92,0.00,,,0.01,WeatherCatV1.15B25,2013-06-19 03:10:00,
2013-06-18 23:15:00,48.5,46.3,29.94,West,268,0.0,0.0,92,0.00,,,0.01,WeatherCatV1.15B25,2013-06-19 03:15:00,
2013-06-18 23:20:00,48.3,46.1,29.94,West,268,0.0,0.0,92,0.00,,,0.01,WeatherCatV1.15B25,2013-06-19 03:20:00,
2013-06-18 23:25:00,48.2,46.0,29.94,West,268,0.0,0.0,92,0.00,,,0.01,WeatherCatV1.15B25,2013-06-19 03:25:00,
2013-06-18 23:30:00,48.1,45.9,29.94,West,268,0.0,0.0,92,0.00,,,0.01,WeatherCatV1.15B25,2013-06-19 03:30:00,
2013-06-18 23:35:00,48.2,46.0,29.94,West,268,0.0,0.0,92,0.00,,,0.01,WeatherCatV1.15B25,2013-06-19 03:35:00,
2013-06-18 23:40:00,48.2,46.3,29.94,West,268,0.0,0.0,93,0.00,,,0.01,WeatherCatV1.15B25,2013-06-19 03:40:00,
2013-06-18 23:45:00,48.2,46.3,29.94,West,268,0.0,0.0,93,0.00,,,0.01,WeatherCatV1.15B25,2013-06-19 03:45:00,
2013-06-18 23:50:00,48.2,46.3,29.94,West,268,0.0,0.0,93,0.00,,,0.01,WeatherCatV1.15B25,2013-06-19 03:50:00,
2013-06-18 23:55:00,48.2,46.3,29.94,West,268,0.0,0.0,93,0.00,,,0.01,WeatherCatV1.15B25,2013-06-19 03:55:00,